sensor_id;sensor_type;location;lat;lon;timestamp;P1;durP1;ratioP1;P2;durP2;ratioP2
59388;SDS011;51830;45.202;19.720;2023-06-22T00:00:55;17.20;;;7.63;;
59388;SDS011;51830;45.202;19.720;2023-06-22T00:03:22;18.27;;;7.97;;
59388;SDS011;51830;45.202;19.720;2023-06-22T00:05:48;18.08;;;7.70;;
59388;SDS011;51830;45.202;19.720;2023-06-22T00:08:15;23.58;;;7.95;;
59388;SDS011;51830;45.202;19.720;2023-06-22T00:10:41;18.05;;;7.97;;
59388;SDS011;51830;45.202;19.720;2023-06-22T00:13:08;17.48;;;7.50;;
59388;SDS011;51830;45.202;19.720;2023-06-22T00:15:35;18.50;;;7.30;;
59388;SDS011;51830;45.202;19.720;2023-06-22T00:18:01;18.95;;;7.88;;
59388;SDS011;51830;45.202;19.720;2023-06-22T00:20:27;17.52;;;7.57;;
59388;SDS011;51830;45.202;19.720;2023-06-22T00:22:54;18.92;;;7.53;;
59388;SDS011;51830;45.202;19.720;2023-06-22T00:25:21;19.02;;;7.75;;
59388;SDS011;51830;45.202;19.720;2023-06-22T00:27:47;18.00;;;7.60;;
59388;SDS011;51830;45.202;19.720;2023-06-22T00:30:15;17.17;;;7.90;;
59388;SDS011;51830;45.202;19.720;2023-06-22T00:32:41;18.77;;;8.02;;
59388;SDS011;51830;45.202;19.720;2023-06-22T00:35:07;18.13;;;7.60;;
59388;SDS011;51830;45.202;19.720;2023-06-22T00:37:35;17.70;;;7.43;;
59388;SDS011;51830;45.202;19.720;2023-06-22T00:40:01;17.80;;;7.90;;
59388;SDS011;51830;45.202;19.720;2023-06-22T00:42:29;18.63;;;7.70;;
59388;SDS011;51830;45.202;19.720;2023-06-22T00:44:55;18.45;;;8.02;;
59388;SDS011;51830;45.202;19.720;2023-06-22T00:47:22;19.35;;;7.43;;
59388;SDS011;51830;45.202;19.720;2023-06-22T00:49:49;17.85;;;7.70;;
59388;SDS011;51830;45.202;19.720;2023-06-22T00:52:21;18.15;;;7.45;;
59388;SDS011;51830;45.202;19.720;2023-06-22T00:54:54;20.85;;;7.53;;
59388;SDS011;51830;45.202;19.720;2023-06-22T00:57:20;18.92;;;7.97;;
59388;SDS011;51830;45.202;19.720;2023-06-22T00:59:47;18.55;;;8.07;;
59388;SDS011;51830;45.202;19.720;2023-06-22T01:02:14;19.77;;;8.02;;
59388;SDS011;51830;45.202;19.720;2023-06-22T01:04:40;19.75;;;7.50;;
59388;SDS011;51830;45.202;19.720;2023-06-22T01:09:42;18.45;;;7.57;;
59388;SDS011;51830;45.202;19.720;2023-06-22T01:12:10;17.50;;;7.75;;
59388;SDS011;51830;45.202;19.720;2023-06-22T01:17:03;18.10;;;8.00;;
59388;SDS011;51830;45.202;19.720;2023-06-22T01:22:06;17.45;;;7.40;;
59388;SDS011;51830;45.202;19.720;2023-06-22T01:29:41;19.50;;;8.02;;
59388;SDS011;51830;45.202;19.720;2023-06-22T01:32:08;21.85;;;8.23;;
59388;SDS011;51830;45.202;19.720;2023-06-22T01:34:35;19.05;;;8.05;;
59388;SDS011;51830;45.202;19.720;2023-06-22T01:37:02;21.30;;;8.00;;
59388;SDS011;51830;45.202;19.720;2023-06-22T01:39:29;22.67;;;8.35;;
59388;SDS011;51830;45.202;19.720;2023-06-22T01:41:55;20.63;;;8.30;;
59388;SDS011;51830;45.202;19.720;2023-06-22T01:44:21;18.88;;;8.23;;
59388;SDS011;51830;45.202;19.720;2023-06-22T01:46:48;18.95;;;8.15;;
59388;SDS011;51830;45.202;19.720;2023-06-22T01:49:15;22.58;;;8.65;;
59388;SDS011;51830;45.202;19.720;2023-06-22T01:51:41;17.92;;;7.95;;
59388;SDS011;51830;45.202;19.720;2023-06-22T01:54:07;18.23;;;8.00;;
59388;SDS011;51830;45.202;19.720;2023-06-22T01:56:34;18.80;;;8.57;;
59388;SDS011;51830;45.202;19.720;2023-06-22T02:01:31;19.92;;;7.70;;
59388;SDS011;51830;45.202;19.720;2023-06-22T02:04:05;20.33;;;7.82;;
59388;SDS011;51830;45.202;19.720;2023-06-22T02:06:36;19.42;;;8.30;;
59388;SDS011;51830;45.202;19.720;2023-06-22T02:09:06;17.23;;;7.88;;
59388;SDS011;51830;45.202;19.720;2023-06-22T02:11:34;22.13;;;8.43;;
59388;SDS011;51830;45.202;19.720;2023-06-22T02:14:01;20.95;;;8.95;;
59388;SDS011;51830;45.202;19.720;2023-06-22T02:16:28;19.02;;;8.50;;
59388;SDS011;51830;45.202;19.720;2023-06-22T02:18:55;20.20;;;8.70;;
59388;SDS011;51830;45.202;19.720;2023-06-22T02:21:23;18.38;;;8.13;;
59388;SDS011;51830;45.202;19.720;2023-06-22T02:23:49;19.73;;;8.90;;
59388;SDS011;51830;45.202;19.720;2023-06-22T02:26:18;22.02;;;8.80;;
59388;SDS011;51830;45.202;19.720;2023-06-22T02:28:44;20.50;;;8.43;;
59388;SDS011;51830;45.202;19.720;2023-06-22T02:31:11;20.63;;;8.93;;
59388;SDS011;51830;45.202;19.720;2023-06-22T02:33:38;20.15;;;8.43;;
59388;SDS011;51830;45.202;19.720;2023-06-22T02:36:04;20.40;;;8.45;;
59388;SDS011;51830;45.202;19.720;2023-06-22T02:38:34;19.15;;;8.10;;
59388;SDS011;51830;45.202;19.720;2023-06-22T02:41:01;20.25;;;8.98;;
59388;SDS011;51830;45.202;19.720;2023-06-22T02:43:27;20.80;;;9.35;;
59388;SDS011;51830;45.202;19.720;2023-06-22T02:45:54;19.23;;;8.80;;
59388;SDS011;51830;45.202;19.720;2023-06-22T02:48:20;21.42;;;8.95;;
59388;SDS011;51830;45.202;19.720;2023-06-22T02:50:46;19.65;;;9.00;;
59388;SDS011;51830;45.202;19.720;2023-06-22T02:53:12;18.73;;;8.65;;
59388;SDS011;51830;45.202;19.720;2023-06-22T02:55:38;21.60;;;9.27;;
59388;SDS011;51830;45.202;19.720;2023-06-22T02:58:05;19.50;;;8.98;;
59388;SDS011;51830;45.202;19.720;2023-06-22T03:00:31;22.63;;;9.48;;
59388;SDS011;51830;45.202;19.720;2023-06-22T03:02:57;22.75;;;8.68;;
59388;SDS011;51830;45.202;19.720;2023-06-22T03:05:24;20.60;;;8.00;;
59388;SDS011;51830;45.202;19.720;2023-06-22T03:07:51;19.13;;;8.55;;
59388;SDS011;51830;45.202;19.720;2023-06-22T03:10:17;19.80;;;8.57;;
59388;SDS011;51830;45.202;19.720;2023-06-22T03:12:43;20.60;;;9.10;;
59388;SDS011;51830;45.202;19.720;2023-06-22T03:15:10;18.73;;;8.13;;
59388;SDS011;51830;45.202;19.720;2023-06-22T03:17:37;18.75;;;8.52;;
59388;SDS011;51830;45.202;19.720;2023-06-22T03:20:04;24.45;;;8.80;;
59388;SDS011;51830;45.202;19.720;2023-06-22T03:22:41;20.85;;;8.25;;
59388;SDS011;51830;45.202;19.720;2023-06-22T03:25:08;19.13;;;8.95;;
59388;SDS011;51830;45.202;19.720;2023-06-22T03:27:37;19.05;;;8.40;;
59388;SDS011;51830;45.202;19.720;2023-06-22T03:30:04;22.52;;;8.88;;
59388;SDS011;51830;45.202;19.720;2023-06-22T03:32:30;19.88;;;8.85;;
59388;SDS011;51830;45.202;19.720;2023-06-22T03:34:56;18.95;;;8.30;;
59388;SDS011;51830;45.202;19.720;2023-06-22T03:37:24;19.45;;;8.75;;
59388;SDS011;51830;45.202;19.720;2023-06-22T03:39:51;18.88;;;8.80;;
59388;SDS011;51830;45.202;19.720;2023-06-22T03:42:18;22.00;;;9.60;;
59388;SDS011;51830;45.202;19.720;2023-06-22T03:44:45;21.05;;;8.70;;
59388;SDS011;51830;45.202;19.720;2023-06-22T03:47:11;19.58;;;8.65;;
59388;SDS011;51830;45.202;19.720;2023-06-22T03:49:37;18.80;;;8.00;;
59388;SDS011;51830;45.202;19.720;2023-06-22T03:52:04;20.02;;;9.00;;
59388;SDS011;51830;45.202;19.720;2023-06-22T03:54:30;19.70;;;9.07;;
59388;SDS011;51830;45.202;19.720;2023-06-22T03:56:57;23.92;;;9.10;;
59388;SDS011;51830;45.202;19.720;2023-06-22T03:59:24;21.52;;;9.35;;
59388;SDS011;51830;45.202;19.720;2023-06-22T04:01:50;26.67;;;8.93;;
59388;SDS011;51830;45.202;19.720;2023-06-22T04:04:19;22.15;;;8.70;;
59388;SDS011;51830;45.202;19.720;2023-06-22T04:06:46;26.45;;;9.68;;
59388;SDS011;51830;45.202;19.720;2023-06-22T04:09:12;24.73;;;9.85;;
59388;SDS011;51830;45.202;19.720;2023-06-22T04:11:38;19.25;;;8.73;;
59388;SDS011;51830;45.202;19.720;2023-06-22T04:14:05;20.40;;;9.25;;
59388;SDS011;51830;45.202;19.720;2023-06-22T04:16:31;21.95;;;9.13;;
59388;SDS011;51830;45.202;19.720;2023-06-22T04:18:57;23.77;;;9.15;;
59388;SDS011;51830;45.202;19.720;2023-06-22T04:21:23;21.52;;;9.60;;
59388;SDS011;51830;45.202;19.720;2023-06-22T04:23:50;19.05;;;8.98;;
59388;SDS011;51830;45.202;19.720;2023-06-22T04:26:16;24.10;;;9.15;;
59388;SDS011;51830;45.202;19.720;2023-06-22T04:28:42;21.80;;;9.40;;
59388;SDS011;51830;45.202;19.720;2023-06-22T04:31:08;20.85;;;9.32;;
59388;SDS011;51830;45.202;19.720;2023-06-22T04:33:34;18.60;;;8.32;;
59388;SDS011;51830;45.202;19.720;2023-06-22T04:36:00;19.15;;;8.77;;
59388;SDS011;51830;45.202;19.720;2023-06-22T04:38:27;19.80;;;8.50;;
59388;SDS011;51830;45.202;19.720;2023-06-22T04:40:53;19.42;;;8.77;;
59388;SDS011;51830;45.202;19.720;2023-06-22T04:43:19;24.77;;;9.68;;
59388;SDS011;51830;45.202;19.720;2023-06-22T04:45:46;20.45;;;8.57;;
59388;SDS011;51830;45.202;19.720;2023-06-22T04:48:17;19.70;;;8.20;;
59388;SDS011;51830;45.202;19.720;2023-06-22T04:50:43;17.88;;;8.00;;
59388;SDS011;51830;45.202;19.720;2023-06-22T04:53:09;21.80;;;8.73;;
59388;SDS011;51830;45.202;19.720;2023-06-22T04:55:37;19.05;;;8.15;;
59388;SDS011;51830;45.202;19.720;2023-06-22T04:58:06;18.40;;;7.93;;
59388;SDS011;51830;45.202;19.720;2023-06-22T05:00:32;18.42;;;7.95;;
59388;SDS011;51830;45.202;19.720;2023-06-22T05:03:01;19.45;;;8.23;;
59388;SDS011;51830;45.202;19.720;2023-06-22T05:05:28;21.13;;;8.18;;
59388;SDS011;51830;45.202;19.720;2023-06-22T05:07:56;20.95;;;8.15;;
59388;SDS011;51830;45.202;19.720;2023-06-22T05:10:25;17.80;;;7.65;;
59388;SDS011;51830;45.202;19.720;2023-06-22T05:12:51;18.38;;;7.57;;
59388;SDS011;51830;45.202;19.720;2023-06-22T05:15:17;19.25;;;7.55;;
59388;SDS011;51830;45.202;19.720;2023-06-22T05:17:44;18.80;;;7.78;;
59388;SDS011;51830;45.202;19.720;2023-06-22T05:20:11;20.73;;;8.43;;
59388;SDS011;51830;45.202;19.720;2023-06-22T05:22:38;20.77;;;8.05;;
59388;SDS011;51830;45.202;19.720;2023-06-22T05:25:08;22.73;;;7.95;;
59388;SDS011;51830;45.202;19.720;2023-06-22T05:27:34;19.52;;;7.65;;
59388;SDS011;51830;45.202;19.720;2023-06-22T05:30:05;19.10;;;7.07;;
59388;SDS011;51830;45.202;19.720;2023-06-22T05:32:31;20.10;;;7.50;;
59388;SDS011;51830;45.202;19.720;2023-06-22T05:34:58;18.33;;;7.15;;
59388;SDS011;51830;45.202;19.720;2023-06-22T05:37:24;21.70;;;8.15;;
59388;SDS011;51830;45.202;19.720;2023-06-22T05:39:51;20.40;;;7.53;;
59388;SDS011;51830;45.202;19.720;2023-06-22T05:42:19;21.45;;;6.97;;
59388;SDS011;51830;45.202;19.720;2023-06-22T05:44:45;18.48;;;7.63;;
59388;SDS011;51830;45.202;19.720;2023-06-22T05:47:12;19.65;;;7.22;;
59388;SDS011;51830;45.202;19.720;2023-06-22T05:49:38;21.13;;;7.50;;
59388;SDS011;51830;45.202;19.720;2023-06-22T05:52:04;21.58;;;7.57;;
59388;SDS011;51830;45.202;19.720;2023-06-22T05:54:31;18.60;;;7.10;;
59388;SDS011;51830;45.202;19.720;2023-06-22T05:56:57;17.85;;;6.72;;
59388;SDS011;51830;45.202;19.720;2023-06-22T05:59:23;17.23;;;6.78;;
59388;SDS011;51830;45.202;19.720;2023-06-22T06:01:49;19.33;;;6.97;;
59388;SDS011;51830;45.202;19.720;2023-06-22T06:04:19;18.60;;;6.57;;
59388;SDS011;51830;45.202;19.720;2023-06-22T06:06:45;17.30;;;6.90;;
59388;SDS011;51830;45.202;19.720;2023-06-22T06:09:15;17.67;;;7.00;;
59388;SDS011;51830;45.202;19.720;2023-06-22T06:11:41;16.27;;;6.63;;
59388;SDS011;51830;45.202;19.720;2023-06-22T06:14:08;15.93;;;6.68;;
59388;SDS011;51830;45.202;19.720;2023-06-22T06:16:34;16.63;;;6.55;;
59388;SDS011;51830;45.202;19.720;2023-06-22T06:19:00;18.90;;;7.75;;
59388;SDS011;51830;45.202;19.720;2023-06-22T06:21:26;17.83;;;7.03;;
59388;SDS011;51830;45.202;19.720;2023-06-22T06:23:53;17.40;;;7.15;;
59388;SDS011;51830;45.202;19.720;2023-06-22T06:26:19;19.15;;;7.03;;
59388;SDS011;51830;45.202;19.720;2023-06-22T06:28:53;18.05;;;7.00;;
59388;SDS011;51830;45.202;19.720;2023-06-22T06:31:20;19.75;;;7.57;;
59388;SDS011;51830;45.202;19.720;2023-06-22T06:33:46;20.42;;;7.25;;
59388;SDS011;51830;45.202;19.720;2023-06-22T06:36:12;19.88;;;7.68;;
59388;SDS011;51830;45.202;19.720;2023-06-22T06:38:38;17.65;;;7.32;;
59388;SDS011;51830;45.202;19.720;2023-06-22T06:41:05;19.55;;;7.82;;
59388;SDS011;51830;45.202;19.720;2023-06-22T06:43:31;18.20;;;7.68;;
59388;SDS011;51830;45.202;19.720;2023-06-22T06:45:57;21.70;;;8.05;;
59388;SDS011;51830;45.202;19.720;2023-06-22T06:48:24;19.80;;;8.07;;
59388;SDS011;51830;45.202;19.720;2023-06-22T06:50:50;20.98;;;7.82;;
59388;SDS011;51830;45.202;19.720;2023-06-22T06:53:16;20.65;;;7.57;;
59388;SDS011;51830;45.202;19.720;2023-06-22T06:55:42;23.98;;;7.93;;
59388;SDS011;51830;45.202;19.720;2023-06-22T06:58:10;20.65;;;7.68;;
59388;SDS011;51830;45.202;19.720;2023-06-22T07:00:38;23.02;;;8.00;;
59388;SDS011;51830;45.202;19.720;2023-06-22T07:03:05;18.38;;;7.82;;
59388;SDS011;51830;45.202;19.720;2023-06-22T07:05:32;18.55;;;7.35;;
59388;SDS011;51830;45.202;19.720;2023-06-22T07:07:58;17.95;;;7.43;;
59388;SDS011;51830;45.202;19.720;2023-06-22T07:10:24;21.63;;;8.10;;
59388;SDS011;51830;45.202;19.720;2023-06-22T07:12:51;20.58;;;8.05;;
59388;SDS011;51830;45.202;19.720;2023-06-22T07:15:17;19.33;;;7.43;;
59388;SDS011;51830;45.202;19.720;2023-06-22T07:17:43;17.98;;;7.38;;
59388;SDS011;51830;45.202;19.720;2023-06-22T07:20:10;17.42;;;7.45;;
59388;SDS011;51830;45.202;19.720;2023-06-22T07:22:41;18.33;;;7.38;;
59388;SDS011;51830;45.202;19.720;2023-06-22T07:25:07;18.30;;;7.88;;
59388;SDS011;51830;45.202;19.720;2023-06-22T07:27:44;19.55;;;7.75;;
59388;SDS011;51830;45.202;19.720;2023-06-22T07:30:11;18.35;;;7.45;;
59388;SDS011;51830;45.202;19.720;2023-06-22T07:32:38;17.20;;;7.57;;
59388;SDS011;51830;45.202;19.720;2023-06-22T07:35:04;18.98;;;7.47;;
59388;SDS011;51830;45.202;19.720;2023-06-22T07:37:31;17.27;;;6.65;;
59388;SDS011;51830;45.202;19.720;2023-06-22T07:39:59;17.95;;;7.05;;
59388;SDS011;51830;45.202;19.720;2023-06-22T07:42:26;20.25;;;7.70;;
59388;SDS011;51830;45.202;19.720;2023-06-22T07:44:52;19.23;;;8.02;;
59388;SDS011;51830;45.202;19.720;2023-06-22T07:47:18;20.13;;;7.40;;
59388;SDS011;51830;45.202;19.720;2023-06-22T07:49:45;21.10;;;7.80;;
59388;SDS011;51830;45.202;19.720;2023-06-22T07:52:12;17.10;;;6.90;;
59388;SDS011;51830;45.202;19.720;2023-06-22T07:54:38;18.52;;;7.50;;
59388;SDS011;51830;45.202;19.720;2023-06-22T07:57:04;17.35;;;7.40;;
59388;SDS011;51830;45.202;19.720;2023-06-22T07:59:31;21.38;;;7.85;;
59388;SDS011;51830;45.202;19.720;2023-06-22T08:01:57;17.63;;;7.70;;
59388;SDS011;51830;45.202;19.720;2023-06-22T08:04:23;20.17;;;7.43;;
59388;SDS011;51830;45.202;19.720;2023-06-22T08:06:52;19.58;;;7.30;;
59388;SDS011;51830;45.202;19.720;2023-06-22T08:09:19;17.60;;;7.18;;
59388;SDS011;51830;45.202;19.720;2023-06-22T08:11:45;22.30;;;7.80;;
59388;SDS011;51830;45.202;19.720;2023-06-22T08:14:11;18.23;;;7.28;;
59388;SDS011;51830;45.202;19.720;2023-06-22T08:16:38;20.95;;;7.60;;
59388;SDS011;51830;45.202;19.720;2023-06-22T08:19:04;18.67;;;7.82;;
59388;SDS011;51830;45.202;19.720;2023-06-22T08:21:30;19.02;;;8.23;;
59388;SDS011;51830;45.202;19.720;2023-06-22T08:23:56;20.25;;;8.55;;
59388;SDS011;51830;45.202;19.720;2023-06-22T08:26:23;17.70;;;7.97;;
59388;SDS011;51830;45.202;19.720;2023-06-22T08:28:49;21.50;;;8.00;;
59388;SDS011;51830;45.202;19.720;2023-06-22T08:31:15;17.58;;;8.18;;
59388;SDS011;51830;45.202;19.720;2023-06-22T08:33:41;21.30;;;8.15;;
59388;SDS011;51830;45.202;19.720;2023-06-22T08:36:10;20.15;;;8.15;;
59388;SDS011;51830;45.202;19.720;2023-06-22T08:38:38;19.42;;;8.20;;
59388;SDS011;51830;45.202;19.720;2023-06-22T08:41:04;20.50;;;8.55;;
59388;SDS011;51830;45.202;19.720;2023-06-22T08:43:30;18.45;;;7.70;;
59388;SDS011;51830;45.202;19.720;2023-06-22T08:45:57;16.73;;;7.22;;
59388;SDS011;51830;45.202;19.720;2023-06-22T08:48:23;20.67;;;8.05;;
59388;SDS011;51830;45.202;19.720;2023-06-22T08:50:49;18.23;;;8.18;;
59388;SDS011;51830;45.202;19.720;2023-06-22T08:53:15;17.20;;;7.88;;
59388;SDS011;51830;45.202;19.720;2023-06-22T08:55:42;18.73;;;8.07;;
59388;SDS011;51830;45.202;19.720;2023-06-22T08:58:08;16.52;;;7.80;;
59388;SDS011;51830;45.202;19.720;2023-06-22T09:00:35;17.42;;;7.65;;
59388;SDS011;51830;45.202;19.720;2023-06-22T09:03:02;17.95;;;8.13;;
59388;SDS011;51830;45.202;19.720;2023-06-22T09:05:29;18.05;;;7.80;;
59388;SDS011;51830;45.202;19.720;2023-06-22T09:07:56;19.30;;;7.82;;
59388;SDS011;51830;45.202;19.720;2023-06-22T09:10:24;21.27;;;8.18;;
59388;SDS011;51830;45.202;19.720;2023-06-22T09:12:50;19.42;;;9.02;;
59388;SDS011;51830;45.202;19.720;2023-06-22T09:15:17;18.65;;;8.07;;
59388;SDS011;51830;45.202;19.720;2023-06-22T09:17:43;19.67;;;7.60;;
59388;SDS011;51830;45.202;19.720;2023-06-22T09:20:11;19.40;;;8.32;;
59388;SDS011;51830;45.202;19.720;2023-06-22T09:22:38;18.38;;;8.07;;
59388;SDS011;51830;45.202;19.720;2023-06-22T09:25:04;17.88;;;8.07;;
59388;SDS011;51830;45.202;19.720;2023-06-22T09:27:31;17.98;;;8.00;;
59388;SDS011;51830;45.202;19.720;2023-06-22T09:29:57;16.67;;;7.72;;
59388;SDS011;51830;45.202;19.720;2023-06-22T09:32:24;17.33;;;7.85;;
59388;SDS011;51830;45.202;19.720;2023-06-22T09:34:51;17.25;;;7.70;;
59388;SDS011;51830;45.202;19.720;2023-06-22T09:37:18;19.90;;;8.23;;
59388;SDS011;51830;45.202;19.720;2023-06-22T09:39:44;17.75;;;7.63;;
59388;SDS011;51830;45.202;19.720;2023-06-22T09:42:10;17.67;;;8.00;;
59388;SDS011;51830;45.202;19.720;2023-06-22T09:44:38;17.60;;;7.43;;
59388;SDS011;51830;45.202;19.720;2023-06-22T09:47:04;18.67;;;7.90;;
59388;SDS011;51830;45.202;19.720;2023-06-22T09:49:31;17.23;;;8.13;;
59388;SDS011;51830;45.202;19.720;2023-06-22T09:51:57;17.40;;;7.72;;
59388;SDS011;51830;45.202;19.720;2023-06-22T09:54:24;20.67;;;8.18;;
59388;SDS011;51830;45.202;19.720;2023-06-22T09:56:50;17.65;;;8.48;;
59388;SDS011;51830;45.202;19.720;2023-06-22T09:59:16;16.83;;;8.20;;
59388;SDS011;51830;45.202;19.720;2023-06-22T10:01:42;17.42;;;8.50;;
59388;SDS011;51830;45.202;19.720;2023-06-22T10:04:09;17.33;;;8.50;;
59388;SDS011;51830;45.202;19.720;2023-06-22T10:06:35;17.98;;;8.02;;
59388;SDS011;51830;45.202;19.720;2023-06-22T10:09:01;17.38;;;7.88;;
59388;SDS011;51830;45.202;19.720;2023-06-22T10:11:28;17.92;;;8.30;;
59388;SDS011;51830;45.202;19.720;2023-06-22T10:13:55;18.27;;;8.10;;
59388;SDS011;51830;45.202;19.720;2023-06-22T10:16:23;18.85;;;8.30;;
59388;SDS011;51830;45.202;19.720;2023-06-22T10:18:51;23.48;;;8.38;;
59388;SDS011;51830;45.202;19.720;2023-06-22T10:21:18;18.88;;;8.25;;
59388;SDS011;51830;45.202;19.720;2023-06-22T10:23:44;17.80;;;8.30;;
59388;SDS011;51830;45.202;19.720;2023-06-22T10:26:10;19.58;;;8.27;;
59388;SDS011;51830;45.202;19.720;2023-06-22T10:28:36;20.10;;;8.40;;
59388;SDS011;51830;45.202;19.720;2023-06-22T10:31:03;18.65;;;8.32;;
59388;SDS011;51830;45.202;19.720;2023-06-22T10:33:29;18.80;;;7.82;;
59388;SDS011;51830;45.202;19.720;2023-06-22T10:35:55;18.23;;;8.18;;
59388;SDS011;51830;45.202;19.720;2023-06-22T10:38:21;17.80;;;8.20;;
59388;SDS011;51830;45.202;19.720;2023-06-22T10:40:48;16.83;;;8.30;;
59388;SDS011;51830;45.202;19.720;2023-06-22T10:43:14;22.02;;;8.40;;
59388;SDS011;51830;45.202;19.720;2023-06-22T10:45:40;20.48;;;8.02;;
59388;SDS011;51830;45.202;19.720;2023-06-22T10:48:07;18.67;;;8.40;;
59388;SDS011;51830;45.202;19.720;2023-06-22T10:50:33;18.40;;;7.65;;
59388;SDS011;51830;45.202;19.720;2023-06-22T10:52:59;20.58;;;8.80;;
59388;SDS011;51830;45.202;19.720;2023-06-22T10:55:26;19.02;;;8.43;;
59388;SDS011;51830;45.202;19.720;2023-06-22T10:57:52;21.10;;;8.60;;
59388;SDS011;51830;45.202;19.720;2023-06-22T11:00:18;17.50;;;8.60;;
59388;SDS011;51830;45.202;19.720;2023-06-22T11:02:46;18.80;;;8.93;;
59388;SDS011;51830;45.202;19.720;2023-06-22T11:05:12;19.00;;;9.02;;
59388;SDS011;51830;45.202;19.720;2023-06-22T11:07:42;19.77;;;8.88;;
59388;SDS011;51830;45.202;19.720;2023-06-22T11:10:09;18.92;;;8.88;;
59388;SDS011;51830;45.202;19.720;2023-06-22T11:12:35;18.27;;;8.98;;
59388;SDS011;51830;45.202;19.720;2023-06-22T11:15:01;18.13;;;8.88;;
59388;SDS011;51830;45.202;19.720;2023-06-22T11:17:28;19.08;;;8.90;;
59388;SDS011;51830;45.202;19.720;2023-06-22T11:19:54;19.25;;;9.73;;
59388;SDS011;51830;45.202;19.720;2023-06-22T11:22:20;21.45;;;9.52;;
59388;SDS011;51830;45.202;19.720;2023-06-22T11:24:47;20.70;;;8.70;;
59388;SDS011;51830;45.202;19.720;2023-06-22T11:27:13;18.52;;;8.90;;
59388;SDS011;51830;45.202;19.720;2023-06-22T11:29:39;19.13;;;9.05;;
59388;SDS011;51830;45.202;19.720;2023-06-22T11:32:06;17.77;;;9.05;;
59388;SDS011;51830;45.202;19.720;2023-06-22T11:34:32;23.95;;;11.18;;
59388;SDS011;51830;45.202;19.720;2023-06-22T11:36:59;19.55;;;10.27;;
59388;SDS011;51830;45.202;19.720;2023-06-22T11:39:25;21.20;;;11.30;;
59388;SDS011;51830;45.202;19.720;2023-06-22T11:41:51;23.65;;;12.60;;
59388;SDS011;51830;45.202;19.720;2023-06-22T11:44:18;21.17;;;12.60;;
59388;SDS011;51830;45.202;19.720;2023-06-22T11:46:44;20.77;;;12.48;;
59388;SDS011;51830;45.202;19.720;2023-06-22T11:49:10;21.67;;;12.88;;
59388;SDS011;51830;45.202;19.720;2023-06-22T11:51:36;23.35;;;12.45;;
59388;SDS011;51830;45.202;19.720;2023-06-22T11:54:03;21.88;;;12.95;;
59388;SDS011;51830;45.202;19.720;2023-06-22T11:56:29;21.15;;;13.10;;
59388;SDS011;51830;45.202;19.720;2023-06-22T11:58:56;22.67;;;12.48;;
59388;SDS011;51830;45.202;19.720;2023-06-22T12:01:22;21.83;;;13.00;;
59388;SDS011;51830;45.202;19.720;2023-06-22T12:03:48;23.50;;;13.10;;
59388;SDS011;51830;45.202;19.720;2023-06-22T12:06:15;23.55;;;13.73;;
59388;SDS011;51830;45.202;19.720;2023-06-22T12:08:41;23.85;;;12.98;;
59388;SDS011;51830;45.202;19.720;2023-06-22T12:11:07;22.50;;;13.15;;
59388;SDS011;51830;45.202;19.720;2023-06-22T12:13:33;22.73;;;12.43;;
59388;SDS011;51830;45.202;19.720;2023-06-22T12:15:59;20.45;;;12.60;;
59388;SDS011;51830;45.202;19.720;2023-06-22T12:18:26;21.50;;;12.52;;
59388;SDS011;51830;45.202;19.720;2023-06-22T12:20:52;22.17;;;11.80;;
59388;SDS011;51830;45.202;19.720;2023-06-22T12:23:18;21.73;;;11.10;;
59388;SDS011;51830;45.202;19.720;2023-06-22T12:25:45;19.65;;;10.98;;
59388;SDS011;51830;45.202;19.720;2023-06-22T12:28:11;20.27;;;11.23;;
59388;SDS011;51830;45.202;19.720;2023-06-22T12:30:38;21.05;;;11.23;;
59388;SDS011;51830;45.202;19.720;2023-06-22T12:33:04;21.05;;;11.13;;
59388;SDS011;51830;45.202;19.720;2023-06-22T12:35:30;21.30;;;11.23;;
59388;SDS011;51830;45.202;19.720;2023-06-22T12:37:56;19.15;;;10.77;;
59388;SDS011;51830;45.202;19.720;2023-06-22T12:40:22;20.20;;;10.70;;
59388;SDS011;51830;45.202;19.720;2023-06-22T12:42:49;20.00;;;11.25;;
59388;SDS011;51830;45.202;19.720;2023-06-22T12:45:15;20.65;;;12.00;;
59388;SDS011;51830;45.202;19.720;2023-06-22T12:47:42;19.48;;;10.82;;
59388;SDS011;51830;45.202;19.720;2023-06-22T12:50:08;22.42;;;11.45;;
59388;SDS011;51830;45.202;19.720;2023-06-22T12:52:36;23.48;;;13.38;;
59388;SDS011;51830;45.202;19.720;2023-06-22T12:55:06;22.35;;;13.75;;
59388;SDS011;51830;45.202;19.720;2023-06-22T12:57:33;21.35;;;12.70;;
59388;SDS011;51830;45.202;19.720;2023-06-22T12:59:59;24.23;;;12.75;;
59388;SDS011;51830;45.202;19.720;2023-06-22T13:02:26;22.27;;;12.48;;
59388;SDS011;51830;45.202;19.720;2023-06-22T13:04:52;22.45;;;13.20;;
59388;SDS011;51830;45.202;19.720;2023-06-22T13:07:18;21.88;;;13.77;;
59388;SDS011;51830;45.202;19.720;2023-06-22T13:09:44;21.35;;;12.68;;
59388;SDS011;51830;45.202;19.720;2023-06-22T13:12:11;22.48;;;14.13;;
59388;SDS011;51830;45.202;19.720;2023-06-22T13:14:38;23.92;;;14.15;;
59388;SDS011;51830;45.202;19.720;2023-06-22T13:17:04;23.80;;;14.50;;
59388;SDS011;51830;45.202;19.720;2023-06-22T13:19:30;22.35;;;12.82;;
59388;SDS011;51830;45.202;19.720;2023-06-22T13:21:57;24.35;;;13.15;;
59388;SDS011;51830;45.202;19.720;2023-06-22T13:24:24;22.55;;;12.45;;
59388;SDS011;51830;45.202;19.720;2023-06-22T13:26:50;20.17;;;11.63;;
59388;SDS011;51830;45.202;19.720;2023-06-22T13:29:17;19.83;;;11.23;;
59388;SDS011;51830;45.202;19.720;2023-06-22T13:31:43;21.15;;;12.80;;
59388;SDS011;51830;45.202;19.720;2023-06-22T13:34:09;25.15;;;13.75;;
59388;SDS011;51830;45.202;19.720;2023-06-22T13:36:35;21.67;;;13.10;;
59388;SDS011;51830;45.202;19.720;2023-06-22T13:39:02;19.90;;;11.23;;
59388;SDS011;51830;45.202;19.720;2023-06-22T13:41:29;20.45;;;11.38;;
59388;SDS011;51830;45.202;19.720;2023-06-22T13:43:55;19.27;;;11.18;;
59388;SDS011;51830;45.202;19.720;2023-06-22T13:46:21;21.38;;;11.25;;
59388;SDS011;51830;45.202;19.720;2023-06-22T13:48:47;19.90;;;10.00;;
59388;SDS011;51830;45.202;19.720;2023-06-22T13:51:14;20.30;;;10.60;;
59388;SDS011;51830;45.202;19.720;2023-06-22T13:53:40;19.15;;;10.23;;
59388;SDS011;51830;45.202;19.720;2023-06-22T13:56:06;19.80;;;10.68;;
59388;SDS011;51830;45.202;19.720;2023-06-22T13:58:33;19.27;;;10.05;;
59388;SDS011;51830;45.202;19.720;2023-06-22T14:00:59;19.98;;;10.25;;
59388;SDS011;51830;45.202;19.720;2023-06-22T14:03:25;21.05;;;9.85;;
59388;SDS011;51830;45.202;19.720;2023-06-22T14:05:51;19.83;;;10.25;;
59388;SDS011;51830;45.202;19.720;2023-06-22T14:08:20;20.15;;;10.38;;
59388;SDS011;51830;45.202;19.720;2023-06-22T14:10:48;21.02;;;10.32;;
59388;SDS011;51830;45.202;19.720;2023-06-22T14:13:15;22.90;;;9.85;;
59388;SDS011;51830;45.202;19.720;2023-06-22T14:15:41;22.50;;;10.60;;
59388;SDS011;51830;45.202;19.720;2023-06-22T14:18:08;20.10;;;10.55;;
59388;SDS011;51830;45.202;19.720;2023-06-22T14:20:34;20.20;;;9.27;;
59388;SDS011;51830;45.202;19.720;2023-06-22T14:23:00;20.13;;;9.70;;
59388;SDS011;51830;45.202;19.720;2023-06-22T14:25:27;21.73;;;9.20;;
59388;SDS011;51830;45.202;19.720;2023-06-22T14:27:53;18.20;;;8.75;;
59388;SDS011;51830;45.202;19.720;2023-06-22T14:30:19;19.50;;;8.43;;